createdAt,value
2017-06-17T00:04:42.287Z,89.40
2017-06-17T00:07:10.473Z,89.50
2017-06-17T00:09:42.876Z,89.70
2017-06-17T00:12:10.990Z,89.60
2017-06-17T00:14:41.049Z,89.70
2017-06-17T00:17:09.155Z,89.80
2017-06-17T00:19:37.285Z,90.00
2017-06-17T00:22:05.382Z,90.40
2017-06-17T00:24:55.215Z,90.40
2017-06-17T00:27:23.379Z,90.40
2017-06-17T00:29:53.443Z,90.70
2017-06-17T00:32:27.029Z,90.90
2017-06-17T00:34:55.133Z,91.10
2017-06-17T00:37:36.638Z,91.30
2017-06-17T00:40:06.745Z,91.60
2017-06-17T00:42:34.871Z,91.90
2017-06-17T00:45:02.997Z,91.80
2017-06-17T00:47:31.106Z,92.00
2017-06-17T00:50:01.807Z,92.20
2017-06-17T00:52:34.294Z,92.30
2017-06-17T00:55:02.413Z,92.40
2017-06-17T00:57:35.375Z,92.20
2017-06-17T01:00:03.531Z,92.60
2017-06-17T01:02:31.654Z,92.50
2017-06-17T01:05:01.742Z,92.50
2017-06-17T01:07:29.918Z,92.30
2017-06-17T01:09:58.968Z,92.20
2017-06-17T01:12:27.087Z,92.40
2017-06-17T01:14:55.234Z,92.50
2017-06-17T01:17:27.207Z,92.40
2017-06-17T01:20:20.520Z,92.40
2017-06-17T01:22:48.640Z,92.20
2017-06-17T01:25:22.695Z,92.30
2017-06-17T01:27:52.810Z,92.40
2017-06-17T01:30:25.879Z,92.60
2017-06-17T01:32:59.546Z,92.70
2017-06-17T01:35:27.671Z,92.80
2017-06-17T01:37:55.799Z,93.00
2017-06-17T01:40:43.862Z,93.20
2017-06-17T01:43:12.054Z,93.00
2017-06-17T01:45:40.237Z,93.10
2017-06-17T01:48:31.667Z,93.50
2017-06-17T01:50:59.831Z,94.00
2017-06-17T01:53:28.547Z,93.70
2017-06-17T01:55:56.678Z,93.50
2017-06-17T01:58:24.806Z,93.80
2017-06-17T02:00:53.735Z,93.70
2017-06-17T02:03:21.858Z,93.60
2017-06-17T02:05:49.971Z,93.70
2017-06-17T02:08:20.066Z,93.90
2017-06-17T02:10:49.150Z,93.90
2017-06-17T02:13:17.266Z,94.00
2017-06-17T02:15:45.378Z,94.10
2017-06-17T02:18:13.494Z,94.20
2017-06-17T02:20:41.608Z,94.40
2017-06-17T02:23:09.768Z,94.40
2017-06-17T02:25:41.991Z,94.30
2017-06-17T02:28:12.064Z,94.50
2017-06-17T02:30:41.119Z,94.30
2017-06-17T02:33:09.284Z,94.50
2017-06-17T02:35:37.378Z,94.40
2017-06-17T02:38:05.500Z,94.30
2017-06-17T02:40:33.641Z,94.10
2017-06-17T02:43:09.370Z,93.90
2017-06-17T02:45:37.509Z,93.60
2017-06-17T02:48:05.611Z,93.70
2017-06-17T02:50:33.738Z,93.80
2017-06-17T02:53:05.213Z,94.10
2017-06-17T02:55:33.339Z,94.50
2017-06-17T02:58:01.458Z,94.80
2017-06-17T03:00:29.570Z,94.90
2017-06-17T03:05:52.774Z,95.10
2017-06-17T03:11:19.962Z,95.40
2017-06-17T03:13:53.107Z,95.40
2017-06-17T03:16:21.250Z,95.40
2017-06-17T03:18:49.350Z,95.20
2017-06-17T03:21:17.463Z,95.10
2017-06-17T03:23:45.594Z,95.10
2017-06-17T03:26:15.645Z,94.80
2017-06-17T03:28:43.795Z,94.80
2017-06-17T03:31:11.882Z,94.70
2017-06-17T03:33:39.999Z,94.60
2017-06-17T03:36:13.799Z,94.20
2017-06-17T03:38:41.972Z,93.40
2017-06-17T03:41:22.620Z,93.20
2017-06-17T03:43:50.798Z,92.90
2017-06-17T03:46:18.893Z,92.80
2017-06-17T03:48:52.309Z,92.90
2017-06-17T03:51:20.441Z,93.00
2017-06-17T03:53:48.534Z,93.10
2017-06-17T03:56:16.776Z,92.90
2017-06-17T03:58:44.878Z,92.70
2017-06-17T04:01:12.987Z,92.90
2017-06-17T04:03:47.490Z,93.30
2017-06-17T04:06:23.114Z,93.40
2017-06-17T04:08:51.211Z,93.00
2017-06-17T04:11:38.631Z,92.00
2017-06-17T04:14:12.742Z,91.40
2017-06-17T04:16:53.402Z,90.50
2017-06-17T04:19:21.518Z,89.10
2017-06-17T04:21:49.642Z,89.20
2017-06-17T04:24:17.762Z,90.80
2017-06-17T04:26:46.226Z,91.10
2017-06-17T04:29:14.322Z,90.20
2017-06-17T04:31:44.314Z,89.40
2017-06-17T04:34:18.422Z,86.50
2017-06-17T04:36:46.522Z,84.50
2017-06-17T04:39:16.811Z,84.20
2017-06-17T04:41:44.915Z,86.50
2017-06-17T04:44:13.770Z,87.60
2017-06-17T04:46:41.899Z,88.60
2017-06-17T04:49:10.037Z,88.50
2017-06-17T04:51:38.174Z,88.10
2017-06-17T04:54:06.277Z,84.50
2017-06-17T04:56:34.398Z,80.00
2017-06-17T04:59:05.538Z,77.70
2017-06-17T05:01:33.674Z,76.10
2017-06-17T05:04:03.718Z,75.20
2017-06-17T05:06:32.787Z,76.20
2017-06-17T05:09:00.906Z,78.80
2017-06-17T05:11:44.096Z,79.80
2017-06-17T05:14:13.139Z,79.30
2017-06-17T05:16:41.219Z,76.80
2017-06-17T05:19:09.328Z,75.10
2017-06-17T05:21:37.465Z,75.60
2017-06-17T05:24:05.603Z,78.40
2017-06-17T05:26:43.806Z,80.90
2017-06-17T05:29:11.986Z,82.50
2017-06-17T05:31:52.511Z,82.50
2017-06-17T05:34:20.614Z,82.50
2017-06-17T05:36:48.731Z,82.90
2017-06-17T05:39:16.858Z,82.80
2017-06-17T05:41:44.954Z,82.50
2017-06-17T05:44:15.093Z,82.90
2017-06-17T05:46:47.639Z,83.30
2017-06-17T05:49:15.741Z,82.40
2017-06-17T05:51:43.851Z,81.40
2017-06-17T05:54:11.984Z,81.40
2017-06-17T05:56:45.887Z,80.80
2017-06-17T05:59:19.769Z,80.40
2017-06-17T06:01:48.874Z,79.90
2017-06-17T06:04:17.371Z,80.00
2017-06-17T06:06:52.087Z,80.20
2017-06-17T06:09:20.229Z,79.50
2017-06-17T06:11:53.381Z,78.60
2017-06-17T06:14:22.537Z,77.60
2017-06-17T06:16:50.632Z,77.00
2017-06-17T06:19:19.439Z,76.40
2017-06-17T06:21:51.707Z,75.70
2017-06-17T06:24:21.755Z,75.30
2017-06-17T06:26:53.706Z,75.30
2017-06-17T06:29:23.727Z,75.20
2017-06-17T06:31:52.074Z,75.40
2017-06-17T06:34:21.163Z,74.40
2017-06-17T06:36:49.291Z,73.90
2017-06-17T06:39:17.477Z,73.60
2017-06-17T06:41:47.069Z,73.40
2017-06-17T06:44:16.081Z,73.10
2017-06-17T06:46:44.200Z,72.80
2017-06-17T06:49:12.306Z,73.50
2017-06-17T06:51:47.190Z,73.60
2017-06-17T06:54:15.314Z,73.60
2017-06-17T06:56:43.422Z,74.10
2017-06-17T06:59:52.236Z,73.00
2017-06-17T07:02:22.474Z,73.10
2017-06-17T07:04:51.293Z,73.10
2017-06-17T07:07:19.426Z,72.60
2017-06-17T07:09:47.567Z,72.90
2017-06-17T07:12:17.618Z,71.70
2017-06-17T07:14:49.765Z,70.70
2017-06-17T07:17:17.882Z,70.60
2017-06-17T07:19:46.912Z,70.40
2017-06-17T07:22:15.021Z,70.80
2017-06-17T07:24:43.142Z,70.90
2017-06-17T07:27:11.290Z,71.00
2017-06-17T07:29:39.428Z,72.20
2017-06-17T07:32:09.459Z,71.50
2017-06-17T07:34:39.555Z,71.10
2017-06-17T07:37:11.626Z,71.50
2017-06-17T07:39:45.254Z,72.10
2017-06-17T07:42:20.574Z,71.30
2017-06-17T07:44:48.722Z,70.30
2017-06-17T07:47:16.820Z,70.30
2017-06-17T07:49:47.016Z,71.10
2017-06-17T07:52:24.797Z,71.50
2017-06-17T07:54:53.944Z,71.50
2017-06-17T07:57:22.947Z,70.40
2017-06-17T07:59:51.059Z,69.20
2017-06-17T08:02:20.125Z,69.90
2017-06-17T08:04:49.168Z,68.50
2017-06-17T08:07:23.438Z,68.00
2017-06-17T08:09:53.478Z,67.60
2017-06-17T08:12:21.638Z,66.90
2017-06-17T08:14:53.470Z,67.60
2017-06-17T08:17:22.601Z,67.10
2017-06-17T08:19:51.717Z,67.80
2017-06-17T08:22:19.877Z,68.40
2017-06-17T08:24:47.973Z,67.90
2017-06-17T08:27:16.098Z,67.50
2017-06-17T08:29:44.239Z,65.70
2017-06-17T08:32:12.497Z,66.20
2017-06-17T08:34:40.644Z,65.40
2017-06-17T08:37:12.777Z,65.10
2017-06-17T08:39:40.875Z,64.70
2017-06-17T08:42:08.978Z,64.50
2017-06-17T08:44:37.117Z,63.80
2017-06-17T08:47:05.460Z,63.50
2017-06-17T08:49:33.603Z,63.90
2017-06-17T08:52:01.717Z,64.10
2017-06-17T08:54:29.823Z,63.70
2017-06-17T08:56:58.901Z,64.00
2017-06-17T08:59:27.018Z,64.60
2017-06-17T09:01:55.147Z,64.20
2017-06-17T09:04:24.179Z,64.20
2017-06-17T09:06:52.312Z,62.90
2017-06-17T09:09:20.409Z,62.00
2017-06-17T09:11:52.503Z,62.60
2017-06-17T09:14:20.598Z,62.50
2017-06-17T09:16:48.730Z,62.80
2017-06-17T09:19:16.861Z,62.30
2017-06-17T09:21:44.943Z,61.60
2017-06-17T09:24:13.073Z,61.30
2017-06-17T09:26:41.592Z,60.70
2017-06-17T09:29:09.686Z,61.10
2017-06-17T09:31:38.994Z,61.10
2017-06-17T09:34:09.010Z,60.60
2017-06-17T09:36:37.166Z,61.60
2017-06-17T09:39:05.259Z,61.20
2017-06-17T09:41:33.374Z,60.80
2017-06-17T09:44:01.497Z,61.10
2017-06-17T09:46:29.638Z,62.40
2017-06-17T09:51:31.135Z,63.10
2017-06-17T09:54:00.115Z,62.60
2017-06-17T09:56:28.230Z,62.50
2017-06-17T09:58:56.343Z,61.30
2017-06-17T10:01:24.481Z,62.30
2017-06-17T10:03:53.637Z,61.80
2017-06-17T10:06:21.727Z,60.40
2017-06-17T10:08:49.835Z,60.80
2017-06-17T10:11:17.935Z,59.90
2017-06-17T10:13:46.082Z,60.00
2017-06-17T10:16:14.854Z,60.50
2017-06-17T10:18:43.058Z,59.30
2017-06-17T10:21:11.163Z,59.70
2017-06-17T10:23:39.265Z,60.20
2017-06-17T10:26:07.391Z,61.50
2017-06-17T10:28:35.493Z,61.20
2017-06-17T10:31:03.601Z,59.90
2017-06-17T10:33:32.443Z,60.00
2017-06-17T10:36:00.549Z,60.40
2017-06-17T10:38:28.714Z,60.70
2017-06-17T10:40:56.859Z,61.30
2017-06-17T10:43:24.963Z,61.00
2017-06-17T10:45:53.055Z,61.50
2017-06-17T10:48:21.148Z,61.50
2017-06-17T10:50:49.233Z,61.20
2017-06-17T10:53:17.854Z,60.50
2017-06-17T10:55:46.608Z,59.00
2017-06-17T10:58:14.767Z,59.20
2017-06-17T11:00:43.515Z,60.00
2017-06-17T11:03:11.634Z,60.00
2017-06-17T11:05:39.768Z,59.30
2017-06-17T11:08:08.738Z,59.30
2017-06-17T11:10:36.899Z,59.20
2017-06-17T11:13:05.859Z,58.70
2017-06-17T11:15:33.949Z,59.30
2017-06-17T11:18:04.044Z,59.10
2017-06-17T11:20:32.158Z,58.90
2017-06-17T11:23:00.278Z,58.40
2017-06-17T11:25:28.503Z,58.90
2017-06-17T11:27:56.591Z,58.50
2017-06-17T11:30:24.716Z,58.60
2017-06-17T11:32:52.898Z,59.10
2017-06-17T11:35:20.990Z,59.30
2017-06-17T11:37:49.102Z,58.50
2017-06-17T11:40:17.507Z,59.00
2017-06-17T11:42:45.609Z,58.80
2017-06-17T11:45:13.707Z,59.20
2017-06-17T11:47:41.815Z,58.40
2017-06-17T11:50:09.930Z,58.40
2017-06-17T11:52:38.037Z,58.70
2017-06-17T11:55:06.220Z,58.80
2017-06-17T11:57:34.319Z,56.40
2017-06-17T12:00:02.438Z,57.10
2017-06-17T12:02:30.706Z,57.60
2017-06-17T12:04:58.848Z,57.70
2017-06-17T12:07:26.939Z,57.90
2017-06-17T12:09:55.257Z,56.30
2017-06-17T12:12:23.387Z,56.60
2017-06-17T12:14:51.685Z,56.40
2017-06-17T12:17:19.832Z,57.00
2017-06-17T12:19:49.954Z,57.60
2017-06-17T12:22:18.173Z,58.00
2017-06-17T12:24:46.298Z,57.90
2017-06-17T12:27:22.063Z,58.60
2017-06-17T12:29:50.214Z,58.50
2017-06-17T12:32:20.240Z,58.70
2017-06-17T12:34:48.422Z,58.30
2017-06-17T12:37:16.749Z,57.90
2017-06-17T12:39:44.903Z,57.80
2017-06-17T12:42:20.235Z,57.40
2017-06-17T12:44:48.387Z,56.90
2017-06-17T12:47:17.496Z,56.80
2017-06-17T12:49:49.826Z,56.20
2017-06-17T12:52:19.883Z,56.50
2017-06-17T12:54:51.928Z,56.20
2017-06-17T12:57:21.107Z,57.10
2017-06-17T12:59:49.482Z,57.20
2017-06-17T13:02:18.729Z,58.10
2017-06-17T13:04:46.913Z,58.50
2017-06-17T13:07:18.676Z,59.10
2017-06-17T13:09:47.874Z,59.50
2017-06-17T13:12:15.991Z,59.40
2017-06-17T13:14:46.157Z,58.60
2017-06-17T13:17:14.381Z,58.80
2017-06-17T13:19:45.428Z,58.60
2017-06-17T13:22:13.737Z,59.00
2017-06-17T13:24:42.010Z,58.80
2017-06-17T13:27:10.144Z,58.90
2017-06-17T13:29:39.238Z,58.80
2017-06-17T13:32:07.433Z,58.60
2017-06-17T13:34:35.534Z,59.50
2017-06-17T13:37:05.733Z,59.20
2017-06-17T13:39:33.837Z,58.90
2017-06-17T13:42:01.955Z,59.40
2017-06-17T13:44:30.073Z,59.40
2017-06-17T13:46:58.229Z,59.70
2017-06-17T13:49:26.369Z,59.80
2017-06-17T13:52:00.358Z,58.70
2017-06-17T13:54:28.532Z,57.90
2017-06-17T13:56:56.621Z,57.70
2017-06-17T13:59:24.786Z,57.70
2017-06-17T14:01:52.924Z,58.30
2017-06-17T14:04:21.028Z,58.20
2017-06-17T14:06:49.195Z,58.80
2017-06-17T14:09:17.412Z,59.10
2017-06-17T14:11:46.468Z,59.30
2017-06-17T14:14:14.614Z,59.70
2017-06-17T14:16:42.718Z,59.20
2017-06-17T14:19:10.845Z,59.90
2017-06-17T14:21:46.534Z,60.30
2017-06-17T14:24:14.774Z,59.70
2017-06-17T14:26:42.948Z,60.10
2017-06-17T14:29:13.076Z,60.20
2017-06-17T14:31:46.750Z,59.50
2017-06-17T14:34:14.989Z,59.60
2017-06-17T14:36:46.835Z,60.40
2017-06-17T14:39:14.976Z,59.90
2017-06-17T14:41:44.818Z,58.70
2017-06-17T14:44:12.957Z,59.40
2017-06-17T14:46:41.110Z,60.60
2017-06-17T14:49:10.438Z,60.90
2017-06-17T14:51:42.285Z,61.80
2017-06-17T14:54:15.198Z,61.90
2017-06-17T14:56:48.640Z,62.00
2017-06-17T14:59:16.802Z,62.90
2017-06-17T15:01:45.831Z,63.70
2017-06-17T15:04:13.984Z,63.40
2017-06-17T15:06:42.103Z,63.60
2017-06-17T15:09:10.222Z,62.60
2017-06-17T15:11:39.254Z,62.10
2017-06-17T15:14:07.400Z,62.60
2017-06-17T15:16:35.547Z,63.40
2017-06-17T15:19:04.597Z,63.50
2017-06-17T15:21:38.059Z,64.20
2017-06-17T15:24:06.205Z,65.30
2017-06-17T15:26:34.335Z,66.40
2017-06-17T15:29:02.463Z,66.50
2017-06-17T15:31:30.647Z,66.50
2017-06-17T15:33:59.692Z,66.10
2017-06-17T15:36:27.931Z,66.70
2017-06-17T15:38:56.060Z,67.10
2017-06-17T15:41:24.238Z,65.30
2017-06-17T15:43:52.377Z,63.10
2017-06-17T15:46:20.524Z,62.40
2017-06-17T15:48:49.656Z,61.80
2017-06-17T15:51:18.683Z,61.30
2017-06-17T15:53:46.796Z,61.30
2017-06-17T15:56:14.917Z,62.80
2017-06-17T15:58:43.724Z,63.00
2017-06-17T16:01:11.841Z,63.10
2017-06-17T16:03:39.963Z,62.60
2017-06-17T16:06:08.131Z,62.60
2017-06-17T16:08:36.254Z,63.10
2017-06-17T16:11:04.402Z,63.10
2017-06-17T16:13:32.563Z,62.60
2017-06-17T16:16:01.579Z,62.10
2017-06-17T16:18:29.742Z,62.80
2017-06-17T16:20:58.754Z,61.50
2017-06-17T16:23:26.903Z,61.80
2017-06-17T16:25:55.046Z,61.70
2017-06-17T16:28:23.228Z,62.70
2017-06-17T16:30:51.418Z,63.40
2017-06-17T16:33:19.933Z,63.30
2017-06-17T16:35:48.059Z,63.80
2017-06-17T16:38:16.164Z,65.30
2017-06-17T16:40:44.311Z,65.40
2017-06-17T16:43:13.330Z,64.50
2017-06-17T16:45:41.447Z,64.10
2017-06-17T16:48:09.640Z,64.60
2017-06-17T16:50:37.799Z,65.30
2017-06-17T16:53:05.909Z,66.10
2017-06-17T16:55:34.060Z,67.50
2017-06-17T16:58:02.183Z,68.00
2017-06-17T17:00:30.298Z,68.80
2017-06-17T17:02:58.427Z,68.20
2017-06-17T17:05:26.596Z,69.60
2017-06-17T17:07:54.685Z,69.40
2017-06-17T17:10:22.807Z,68.90
2017-06-17T17:12:50.915Z,69.70
2017-06-17T17:15:19.063Z,69.50
2017-06-17T17:17:47.204Z,69.60
2017-06-17T17:20:15.332Z,71.10
2017-06-17T17:22:43.454Z,70.90
2017-06-17T17:25:11.561Z,70.60
2017-06-17T17:27:39.677Z,70.20
2017-06-17T17:30:11.285Z,71.40
2017-06-17T17:32:39.387Z,71.70
2017-06-17T17:35:07.505Z,71.90
2017-06-17T17:37:35.635Z,72.10
2017-06-17T17:40:04.655Z,72.80
2017-06-17T17:42:32.781Z,73.40
2017-06-17T17:45:00.896Z,73.90
2017-06-17T17:47:29.074Z,74.00
2017-06-17T17:49:57.278Z,74.80
2017-06-17T17:52:25.503Z,75.40
2017-06-17T17:54:53.679Z,76.10
2017-06-17T17:57:21.860Z,76.40
2017-06-17T17:59:49.982Z,77.20
2017-06-17T18:02:18.117Z,77.70
2017-06-17T18:04:46.256Z,77.70
2017-06-17T18:07:14.367Z,77.70
2017-06-17T18:09:43.426Z,77.70
2017-06-17T18:12:11.539Z,77.80
2017-06-17T18:14:39.661Z,78.00
2017-06-17T18:17:07.788Z,77.80
2017-06-17T18:19:36.802Z,78.00
2017-06-17T18:25:03.226Z,78.80
2017-06-17T18:27:31.360Z,79.00
2017-06-17T18:29:59.550Z,78.80
2017-06-17T18:32:27.695Z,78.70
2017-06-17T18:34:57.330Z,78.10
2017-06-17T18:37:26.366Z,76.60
2017-06-17T18:39:55.235Z,75.90
2017-06-17T18:42:23.928Z,76.60
2017-06-17T18:44:52.070Z,76.20
2017-06-17T18:47:20.204Z,76.50
2017-06-17T18:49:49.152Z,77.00
2017-06-17T18:52:17.399Z,77.70
2017-06-17T18:54:46.434Z,78.50
2017-06-17T18:57:15.045Z,78.90
2017-06-17T18:59:43.175Z,79.30
2017-06-17T19:02:11.318Z,80.00
2017-06-17T19:04:39.482Z,80.00
2017-06-17T19:07:07.618Z,80.10
2017-06-17T19:09:35.785Z,80.00
2017-06-17T19:12:03.911Z,79.60
2017-06-17T19:14:34.041Z,79.60
2017-06-17T19:17:02.188Z,79.90
2017-06-17T19:19:30.315Z,80.30
2017-06-17T19:21:58.444Z,80.90
2017-06-17T19:24:26.595Z,81.80
2017-06-17T19:26:58.303Z,82.70
2017-06-17T19:29:26.436Z,83.20
2017-06-17T19:31:54.591Z,83.60
2017-06-17T19:34:22.751Z,83.90
2017-06-17T19:36:50.947Z,84.40
2017-06-17T19:39:19.150Z,85.10
2017-06-17T19:41:47.424Z,85.70
2017-06-17T19:44:15.558Z,86.10
2017-06-17T19:46:43.694Z,85.80
2017-06-17T19:49:11.844Z,85.90
2017-06-17T19:51:40.598Z,85.80
2017-06-17T19:54:08.752Z,86.10
2017-06-17T19:56:36.882Z,86.60
2017-06-17T19:59:05.076Z,87.00
2017-06-17T20:01:33.212Z,87.60
2017-06-17T20:04:01.338Z,88.30
2017-06-17T20:06:30.451Z,88.90
2017-06-17T20:08:58.563Z,89.60
2017-06-17T20:11:26.691Z,90.10
2017-06-17T20:13:54.833Z,90.40
2017-06-17T20:16:22.944Z,90.60
2017-06-17T20:18:51.075Z,90.90
2017-06-17T20:21:24.966Z,91.40
2017-06-17T20:23:53.089Z,91.70
2017-06-17T20:26:21.254Z,91.90
2017-06-17T20:28:51.564Z,92.20
2017-06-17T20:31:23.473Z,92.50
2017-06-17T20:33:54.162Z,92.80
2017-06-17T20:36:22.301Z,93.20
2017-06-17T20:38:52.249Z,93.70
2017-06-17T20:41:22.123Z,94.10
2017-06-17T20:43:53.143Z,94.40
2017-06-17T20:46:21.314Z,94.90
2017-06-17T20:48:52.274Z,95.20
2017-06-17T20:51:21.370Z,95.30
2017-06-17T20:53:51.014Z,95.40
2017-06-17T20:56:19.157Z,95.20
2017-06-17T20:58:47.318Z,95.40
2017-06-17T21:01:16.374Z,95.30
2017-06-17T21:03:44.515Z,95.30
2017-06-17T21:06:17.507Z,95.20
2017-06-17T21:08:45.653Z,95.20
2017-06-17T21:11:15.062Z,95.00
2017-06-17T21:13:44.283Z,95.30
2017-06-17T21:16:14.131Z,95.10
2017-06-17T21:18:43.606Z,95.10
2017-06-17T21:21:14.172Z,95.10
2017-06-17T21:23:52.410Z,94.70
2017-06-17T21:26:22.444Z,95.00
2017-06-17T21:28:53.276Z,95.00
2017-06-17T21:31:27.554Z,95.10
2017-06-17T21:33:55.727Z,95.30
2017-06-17T21:36:23.893Z,95.20
2017-06-17T21:38:52.124Z,95.00
2017-06-17T21:41:20.250Z,94.70
2017-06-17T21:43:48.388Z,94.70
2017-06-17T21:46:17.892Z,94.20
2017-06-17T21:48:47.815Z,94.20
2017-06-17T21:51:17.885Z,94.00
2017-06-17T21:53:51.524Z,93.80
2017-06-17T21:56:19.674Z,93.90
2017-06-17T21:58:47.823Z,94.00
2017-06-17T22:01:19.464Z,94.00
2017-06-17T22:03:48.511Z,94.00
2017-06-17T22:06:19.416Z,94.00
2017-06-17T22:08:48.530Z,94.10
2017-06-17T22:11:18.328Z,94.00
2017-06-17T22:13:49.614Z,94.10
2017-06-17T22:16:17.787Z,94.00
2017-06-17T22:18:45.925Z,93.90
2017-06-17T22:21:14.066Z,94.00
2017-06-17T22:23:43.182Z,94.00
2017-06-17T22:26:17.639Z,94.20
2017-06-17T22:28:45.821Z,94.40
2017-06-17T22:31:14.866Z,94.40
2017-06-17T22:33:44.410Z,94.20
2017-06-17T22:36:14.871Z,94.00
2017-06-17T22:38:42.999Z,94.10
2017-06-17T22:41:11.340Z,94.40
2017-06-17T22:43:39.527Z,94.50
2017-06-17T22:46:07.658Z,94.50
2017-06-17T22:51:46.169Z,94.70
2017-06-17T22:54:14.682Z,94.80
2017-06-17T22:56:44.369Z,95.40
2017-06-17T22:59:15.334Z,95.10
2017-06-17T23:01:46.501Z,95.40
2017-06-17T23:04:18.051Z,95.60
2017-06-17T23:06:54.484Z,96.00
2017-06-17T23:09:22.612Z,96.30
2017-06-17T23:11:50.755Z,96.40
2017-06-17T23:14:19.516Z,96.50
2017-06-17T23:16:51.102Z,97.00
2017-06-17T23:19:19.253Z,97.10
2017-06-17T23:21:48.537Z,97.30
2017-06-17T23:24:16.739Z,97.30
2017-06-17T23:26:44.883Z,97.40
2017-06-17T23:29:13.037Z,97.50
2017-06-17T23:31:41.215Z,97.70
2017-06-17T23:34:09.344Z,97.90
2017-06-17T23:36:37.492Z,97.90
2017-06-17T23:39:05.651Z,98.00
2017-06-17T23:41:35.755Z,98.10
2017-06-17T23:44:25.440Z,98.50
2017-06-17T23:46:56.280Z,98.40
2017-06-17T23:49:24.430Z,98.20
2017-06-17T23:51:52.610Z,98.10
2017-06-17T23:54:20.770Z,98.10
2017-06-17T23:56:48.887Z,98.10
2017-06-17T23:59:17.013Z,98.40
